Time;durP1;ratioP1;P1;durP2;ratioP2;P2;SDS_P1;SDS_P2;PMS_P1;PMS_P2;Temp;Humidity;BMP_temperature;BMP_pressure;BME280_temperature;BME280_humidity;BME280_pressure;Samples;Min_cycle;Max_cycle;Signal;HPM_P1;HPM_P2
2022/09/07 00:01:17;;;;;;;6.07;4.87;;;21.00;99.90;;;21.38;88.66;101104.69;5114312;28;20040;-66
2022/09/07 00:03:46;;;;;;;7.07;5.43;;;21.00;99.90;;;21.49;88.70;101105.94;5114323;28;20076;-66
2022/09/07 00:06:14;;;;;;;8.07;4.20;;;21.00;99.90;;;21.34;87.15;101106.66;5114024;28;20039;-66
2022/09/07 00:08:43;;;;;;;7.15;4.50;;;20.90;99.90;;;21.18;86.55;101100.19;5114130;28;20046;-66
2022/09/07 00:11:14;;;;;;;7.47;4.00;;;20.80;99.90;;;21.29;86.47;101097.88;5114110;28;20071;-66
2022/09/07 00:13:45;;;;;;;6.47;3.70;;;20.90;99.90;;;21.29;85.90;101087.13;5114298;28;20437;-66
2022/09/07 00:16:19;;;;;;;5.22;3.50;;;20.90;99.90;;;21.21;85.06;101067.78;5114002;28;20043;-66
2022/09/07 00:18:48;;;;;;;6.20;3.45;;;20.90;99.90;;;21.35;84.86;101076.09;5113975;28;20036;-66
2022/09/07 00:21:17;;;;;;;5.60;3.58;;;20.90;99.90;;;21.08;84.03;101060.31;5114158;28;20040;-66
2022/09/07 00:23:49;;;;;;;6.15;3.65;;;20.80;99.90;;;21.16;84.19;101068.91;5114119;28;20047;-66
2022/09/07 00:26:20;;;;;;;5.90;4.13;;;20.80;99.90;;;21.10;83.94;101067.38;5114266;28;20067;-66
2022/09/07 00:28:48;;;;;;;;;;;20.70;99.90;;;21.03;84.23;101073.09;5114362;28;20060;-66
2022/09/07 00:31:20;;;;;;;5.10;3.75;;;20.70;99.90;;;21.05;84.26;101071.19;5113784;28;19951;-66
2022/09/07 00:33:50;;;;;;;5.85;3.70;;;20.60;99.90;;;20.86;83.87;101036.16;5113702;28;20545;-66
2022/09/07 00:36:21;;;;;;;4.65;3.70;;;20.60;99.90;;;21.07;84.29;101066.63;5113746;28;20039;-66
2022/09/07 00:38:49;;;;;;;4.97;3.42;;;20.60;99.90;;;20.95;84.16;101059.06;5113693;28;20454;-66
2022/09/07 00:41:22;;;;;;;6.43;3.63;;;20.70;99.90;;;20.64;83.45;101070.28;5113461;28;20126;-66
2022/09/07 00:43:52;;;;;;;4.32;3.90;;;20.50;99.90;;;20.54;84.76;101090.41;5113563;28;20112;-66
2022/09/07 00:46:27;;;;;;;6.93;4.53;;;20.30;99.90;;;20.49;85.01;101052.13;5113361;28;20066;-66
2022/09/07 00:49:01;;;;;;;5.93;3.75;;;20.30;99.90;;;20.83;85.17;101090.06;5113589;28;20512;-66
2022/09/07 00:51:35;;;;;;;4.88;3.80;;;20.40;99.90;;;20.03;86.90;101088.03;5113580;28;20039;-66
2022/09/07 00:54:09;;;;;;;8.05;4.50;;;19.90;99.90;;;19.73;88.50;101089.19;5112087;28;20057;-66
2022/09/07 00:56:40;;;;;;;6.10;4.53;;;19.50;99.90;;;19.74;88.91;101081.06;5113294;28;20039;-66
2022/09/07 00:59:11;;;;;;;5.60;4.07;;;19.50;99.90;;;19.82;88.09;101043.22;5113328;28;20097;-66
2022/09/07 01:01:41;;;;;;;8.90;3.90;;;19.60;99.90;;;20.28;87.32;101117.50;5113272;28;20071;-66
2022/09/07 01:04:09;;;;;;;;;;;19.80;99.90;;;19.96;87.00;101099.91;5113889;28;20071;-66
2022/09/07 01:06:41;;;;;;;7.75;4.00;;;19.70;99.90;;;20.23;87.86;101106.91;5112997;28;19996;-66
2022/09/07 01:09:14;;;;;;;4.95;4.05;;;19.80;99.90;;;19.99;87.03;101107.88;5113197;28;20039;-66
2022/09/07 01:11:49;;;;;;;6.90;3.92;;;19.70;99.90;;;19.49;88.90;101108.94;5113006;28;20062;-66
2022/09/07 01:14:24;;;;;;;5.88;4.18;;;19.30;99.90;;;19.65;88.67;101136.94;5113258;28;20039;-66
2022/09/07 01:17:06;;;;;;;5.00;3.70;;;19.30;99.90;;;19.54;89.88;101141.81;5112961;28;20558;-66
2022/09/07 01:20:18;;;;;;;6.20;4.28;;;19.10;99.90;;;20.04;89.05;101147.97;5112869;28;20048;-66
2022/09/07 01:23:17;;;;;;;6.15;3.95;;;19.40;99.90;;;20.03;87.43;101114.88;5113118;28;20063;-66
2022/09/07 01:26:08;;;;;;;4.20;3.58;;;19.70;99.90;;;20.38;87.23;101143.06;5112777;28;20073;-66
2022/09/07 01:28:39;;;;;;;6.10;4.00;;;19.90;99.90;;;20.21;86.15;101097.19;5112897;28;20118;-66
2022/09/07 01:31:18;;;;;;;4.30;3.80;;;20.00;99.90;;;20.13;85.84;101057.16;5111643;28;20044;-66
2022/09/07 01:33:59;;;;;;;6.82;4.00;;;20.10;99.90;;;20.63;85.85;101135.75;5112661;28;20044;-66
2022/09/07 01:36:34;;;;;;;7.03;3.72;;;20.20;99.90;;;20.51;85.58;101125.50;5112973;28;20046;-66
2022/09/07 01:39:05;;;;;;;6.28;4.00;;;20.10;99.90;;;20.08;85.52;101091.38;5112940;28;20039;-66
2022/09/07 01:41:40;;;;;;;4.38;3.58;;;19.90;99.90;;;19.92;87.92;101121.59;5113032;28;20176;-65
2022/09/07 01:44:17;;;;;;;7.95;4.10;;;19.50;99.90;;;19.96;87.96;101128.56;5111325;28;20476;-66
2022/09/07 01:46:52;;;;;;;4.13;3.72;;;19.40;99.90;;;19.91;88.13;101119.84;5112322;28;20081;-65
2022/09/07 01:49:24;;;;;;;5.70;4.20;;;19.40;99.90;;;19.73;89.46;101126.78;5112720;28;20039;-66
2022/09/07 01:51:58;;;;;;;4.32;3.92;;;19.20;99.90;;;19.57;90.66;101123.78;5112693;28;20100;-66
2022/09/07 01:54:32;;;;;;;5.03;3.90;;;19.00;99.90;;;19.46;90.91;101100.97;5112579;28;20051;-66
2022/09/07 01:57:08;;;;;;;5.60;4.28;;;19.00;99.90;;;19.58;91.46;101114.81;5112650;28;20048;-66
2022/09/07 01:59:42;;;;;;;4.93;3.95;;;19.00;99.90;;;19.63;90.71;101114.63;5112384;28;20404;-66
2022/09/07 02:02:16;;;;;;;4.40;3.70;;;19.10;99.90;;;19.71;90.88;101118.78;5112732;28;20055;-66
2022/09/07 02:04:50;;;;;;;5.72;3.88;;;19.10;99.90;;;19.45;91.03;101118.88;5112555;28;20181;-66
2022/09/07 02:07:24;;;;;;;4.72;4.13;;;19.10;99.90;;;19.43;92.05;101120.78;5111537;28;20497;-66
2022/09/07 02:09:56;;;;;;;6.45;3.83;;;18.90;99.90;;;19.33;92.32;101113.97;5116599;28;20489;-66
2022/09/07 02:12:31;;;;;;;6.40;4.00;;;18.80;99.90;;;19.13;92.98;101112.88;5115305;28;20054;-65
2022/09/07 02:15:05;;;;;;;6.45;4.30;;;18.70;99.90;;;19.08;93.79;101118.44;5116409;28;20048;-66
2022/09/07 02:17:39;;;;;;;5.30;4.05;;;18.60;99.90;;;19.11;93.98;101131.72;5116357;28;20043;-66
2022/09/07 02:20:12;;;;;;;6.90;4.78;;;18.60;99.90;;;19.11;93.78;101125.47;5116204;28;20046;-66
2022/09/07 02:22:49;;;;;;;7.32;4.97;;;18.60;99.90;;;19.00;94.23;101112.47;5116479;28;20067;-66
2022/09/07 02:25:22;;;;;;;5.03;4.50;;;18.50;99.90;;;19.01;94.76;101110.66;5115210;28;20056;-66
2022/09/07 02:27:55;;;;;;;7.45;4.78;;;18.50;99.90;;;19.07;94.67;101113.09;5116249;28;20053;-66
2022/09/07 02:30:24;;;;;;;5.55;4.53;;;18.60;99.90;;;19.10;94.62;101123.75;5116252;28;20416;-66
2022/09/07 02:32:55;;;;;;;8.57;4.53;;;18.60;99.90;;;19.20;94.58;101115.28;5116466;28;20052;-66
2022/09/07 02:35:23;;;;;;;4.82;4.35;;;18.70;99.90;;;19.32;93.97;101125.63;5114767;28;20789;-66
2022/09/07 02:37:52;;;;;;;6.05;4.72;;;18.80;99.90;;;19.16;94.88;101120.84;5115837;28;20400;-66
2022/09/07 02:40:20;;;;;;;7.22;5.32;;;18.70;99.90;;;19.21;94.97;101118.88;5115674;28;20616;-66
2022/09/07 02:42:50;;;;;;;6.97;4.60;;;18.70;99.90;;;18.90;95.76;101119.94;5114499;28;20051;-66
2022/09/07 02:45:19;;;;;;;6.57;4.80;;;18.50;99.90;;;18.63;97.43;101103.94;5115862;28;20435;-66
2022/09/07 02:48:09;;;;;;;6.82;5.03;;;18.30;99.90;;;18.44;98.14;101101.00;5116035;28;20357;-66
2022/09/07 02:51:13;;;;;;;5.93;3.90;;;18.10;99.90;;;18.49;99.07;101115.09;5115855;28;20067;-66
2022/09/07 02:53:57;;;;;;;5.78;4.65;;;18.10;99.90;;;18.44;99.28;101127.78;5102392;28;20059;-66
2022/09/07 02:56:45;;;;;;;6.93;5.30;;;18.00;99.90;;;18.54;99.18;101114.97;5115496;28;20438;-66
2022/09/07 02:59:34;;;;;;;6.70;4.50;;;18.10;99.90;;;18.44;99.01;101116.19;5115506;28;20044;-66
2022/09/07 03:02:13;;;;;;;7.43;4.68;;;18.10;99.90;;;18.37;99.84;101111.94;5115768;28;20048;-66
2022/09/07 03:04:49;;;;;;;7.70;5.03;;;18.00;99.90;;;18.35;100.00;101111.09;5115339;28;20044;-66
2022/09/07 03:07:23;;;;;;;7.50;4.50;;;17.90;99.90;;;18.28;100.00;101107.72;5115314;28;20050;-66
2022/09/07 03:09:53;;;;;;;5.93;4.78;;;17.90;99.90;;;17.21;100.00;100918.44;5115194;28;20104;-66
2022/09/07 03:12:22;;;;;;;5.82;4.82;;;17.80;99.90;;;18.03;100.00;101053.22;5115717;28;20572;-66
2022/09/07 03:14:50;;;;;;;5.53;4.97;;;17.80;99.90;;;18.16;100.00;101091.16;5115137;28;20457;-66
2022/09/07 03:17:19;;;;;;;7.75;5.10;;;17.80;99.90;;;18.08;100.00;101080.69;5115209;28;20051;-66
2022/09/07 03:19:48;;;;;;;6.50;5.00;;;17.70;99.90;;;18.15;100.00;101086.75;5113744;28;20495;-66
2022/09/07 03:22:17;;;;;;;10.90;5.50;;;17.70;99.90;;;18.04;100.00;101073.69;5114970;28;20051;-66
2022/09/07 03:24:45;;;;;;;6.90;5.68;;;17.60;99.90;;;17.99;100.00;101068.50;5114983;28;20046;-66
2022/09/07 03:27:13;;;;;;;6.63;5.57;;;17.70;99.90;;;18.00;100.00;101069.38;5114837;28;20081;-66
2022/09/07 03:29:42;;;;;;;7.32;5.10;;;17.70;99.90;;;18.08;100.00;101078.03;5114870;28;20032;-66
2022/09/07 03:32:10;;;;;;;7.75;5.72;;;17.60;99.90;;;18.07;100.00;101073.59;5114792;28;20067;-66
2022/09/07 03:34:38;;;;;;;5.85;4.97;;;17.70;99.90;;;18.19;100.00;101094.66;5114663;28;20466;-66
2022/09/07 03:37:08;;;;;;;8.73;5.50;;;17.70;99.90;;;18.37;100.00;101091.34;5114844;28;20405;-66
2022/09/07 03:39:37;;;;;;;6.82;5.30;;;17.90;99.90;;;18.49;100.00;101096.34;5114969;28;20040;-66
2022/09/07 03:42:05;;;;;;;8.82;5.22;;;18.00;99.90;;;18.36;99.37;101062.84;5114618;28;20043;-66
2022/09/07 03:44:34;;;;;;;5.55;4.97;;;18.10;99.90;;;18.56;98.31;101097.88;5114535;28;20044;-66
2022/09/07 03:47:02;;;;;;;9.73;5.32;;;18.10;99.90;;;18.49;98.21;101069.56;5114469;28;20052;-66
2022/09/07 03:49:30;;;;;;;6.35;5.50;;;18.20;99.90;;;18.55;97.82;101082.75;5114710;28;20044;-66
2022/09/07 03:51:59;;;;;;;7.07;5.72;;;18.20;99.90;;;18.72;97.05;101095.56;5114368;28;20471;-66
2022/09/07 03:54:28;;;;;;;5.72;5.10;;;18.30;99.90;;;18.63;96.34;101059.25;5114394;28;20401;-66
2022/09/07 03:56:57;;;;;;;7.53;5.13;;;18.50;99.90;;;18.82;95.76;101091.66;5113048;28;20500;-66
2022/09/07 03:59:26;;;;;;;7.47;5.00;;;18.50;99.90;;;18.83;95.00;101083.53;5114269;28;20428;-66
2022/09/07 04:01:54;;;;;;;5.45;4.85;;;18.60;99.90;;;18.93;94.55;101108.22;5114389;28;20039;-66
2022/09/07 04:04:22;;;;;;;6.18;4.65;;;18.60;99.90;;;19.03;94.01;101109.66;5114230;28;20161;-66
2022/09/07 04:06:51;;;;;;;5.90;4.70;;;18.70;99.90;;;18.53;92.99;100998.88;5114408;28;20488;-66
2022/09/07 04:09:19;;;;;;;5.10;4.22;;;18.80;99.90;;;19.02;91.92;101085.59;5114287;28;20134;-66
2022/09/07 04:11:49;;;;;;;6.35;4.60;;;18.70;99.90;;;18.92;91.48;101072.53;5114251;28;20052;-66
2022/09/07 04:14:17;;;;;;;5.80;4.43;;;18.70;99.90;;;18.89;91.30;101075.28;5114033;28;20569;-66
2022/09/07 04:16:46;;;;;;;6.45;4.43;;;18.70;99.90;;;19.16;91.25;101107.44;5114241;28;20139;-66
2022/09/07 04:19:14;;;;;;;6.22;5.63;;;18.70;99.90;;;19.10;90.56;101083.53;5113988;28;20066;-66
2022/09/07 04:21:43;;;;;;;7.05;6.38;;;18.80;99.90;;;19.20;91.00;101088.47;5112800;28;20496;-66
2022/09/07 04:24:11;;;;;;;6.05;5.55;;;18.80;99.90;;;19.18;90.66;101078.75;5112866;28;20054;-66
2022/09/07 04:26:42;;;;;;;7.65;6.20;;;18.80;99.90;;;18.88;90.41;101032.47;5112740;28;20474;-66
2022/09/07 04:29:12;;;;;;;;;;;18.80;99.90;;;19.08;90.40;101082.69;5114182;28;20036;-66
2022/09/07 04:31:43;;;;;;;9.17;6.23;;;18.80;99.90;;;19.20;90.85;101103.72;5113500;28;19923;-66
2022/09/07 04:34:12;;;;;;;6.47;5.88;;;18.80;99.90;;;19.00;90.66;101060.63;5113782;28;20281;-66
2022/09/07 04:36:40;;;;;;;6.88;6.07;;;18.80;99.90;;;19.14;90.58;101093.22;5113608;28;20445;-66
2022/09/07 04:39:10;;;;;;;7.95;7.15;;;18.80;99.90;;;18.92;90.71;101067.16;5113633;28;20454;-66
2022/09/07 04:41:38;;;;;;;7.43;6.65;;;18.70;99.90;;;19.10;90.75;101088.88;5113721;28;20043;-66
2022/09/07 04:44:06;;;;;;;10.73;7.53;;;18.70;99.90;;;18.87;91.29;101047.66;5113672;28;20092;-66
2022/09/07 04:46:37;;;;;;;8.90;7.47;;;18.70;99.90;;;19.15;91.25;101084.22;5113365;28;20500;-66
2022/09/07 04:49:08;;;;;;;9.60;7.40;;;18.70;99.90;;;19.25;91.04;101089.19;5112261;28;20386;-66
2022/09/07 04:51:36;;;;;;;;;;;18.80;99.90;;;19.19;91.08;101081.38;5113856;28;20067;-66
2022/09/07 04:54:05;;;;;;;9.40;7.60;;;18.90;99.90;;;19.25;91.50;101089.19;5113582;28;19920;-66
2022/09/07 04:56:34;;;;;;;11.00;8.45;;;18.90;99.90;;;19.21;91.50;101084.88;5113228;28;20495;-66
2022/09/07 04:59:03;;;;;;;12.05;8.32;;;18.90;99.90;;;19.19;91.60;101080.50;5113454;28;20488;-66
2022/09/07 05:01:32;;;;;;;9.80;8.23;;;18.80;99.90;;;19.08;91.50;101080.00;5113147;28;20462;-66
2022/09/07 05:04:03;;;;;;;10.77;8.80;;;18.80;99.90;;;19.05;92.05;101074.78;5113295;28;20040;-66
2022/09/07 05:06:32;;;;;;;11.52;8.98;;;18.70;99.90;;;18.82;92.24;101036.25;5113383;28;20501;-66
2022/09/07 05:09:01;;;;;;;9.63;8.73;;;18.70;99.90;;;19.02;92.05;101070.38;5113181;28;20506;-66
2022/09/07 05:11:29;;;;;;;10.02;8.98;;;18.60;99.90;;;19.04;92.77;101076.56;5113120;28;20105;-66
2022/09/07 05:13:58;;;;;;;9.88;8.63;;;18.60;99.90;;;19.03;92.52;101074.81;5113135;28;20461;-66
2022/09/07 05:16:28;;;;;;;9.68;8.68;;;18.70;99.90;;;19.08;92.64;101069.28;5113001;28;20071;-66
2022/09/07 05:18:59;;;;;;;9.48;8.48;;;18.70;99.90;;;19.21;92.53;101076.84;5112883;28;20040;-67
2022/09/07 05:21:33;;;;;;;10.27;8.25;;;18.80;99.90;;;19.31;92.10;101077.38;5112952;28;20051;-66
2022/09/07 05:24:03;;;;;;;9.68;7.28;;;18.80;99.90;;;19.42;91.67;101075.19;5113118;28;20051;-66
2022/09/07 05:26:34;;;;;;;9.13;7.83;;;19.00;99.90;;;19.48;91.59;101077.66;5113051;28;20052;-66
2022/09/07 05:29:04;;;;;;;;;;;19.00;99.90;;;19.37;90.76;101064.66;5113732;28;20108;-66
2022/09/07 05:31:53;;;;;;;8.43;7.55;;;19.10;99.90;;;19.40;90.64;101080.63;5112678;28;20014;-66
2022/09/07 05:34:21;;;;;;;8.85;7.95;;;19.00;99.90;;;19.48;90.85;101074.97;5112836;28;20042;-66
2022/09/07 05:37:00;;;;;;;10.63;8.30;;;19.10;99.90;;;19.52;90.68;101069.44;5112842;28;20056;-66
2022/09/07 05:39:30;;;;;;;;;;;19.10;99.90;;;19.41;90.20;101044.81;5113276;28;20400;-66
2022/09/07 05:41:59;;;;;;;10.53;8.77;;;19.20;99.90;;;19.64;90.02;101081.50;5112584;28;20014;-66
2022/09/07 05:44:27;;;;;;;9.45;8.13;;;19.20;99.90;;;19.51;89.74;101061.44;5114725;28;20043;-67
2022/09/07 05:47:12;;;;;;;9.30;7.85;;;19.20;99.90;;;19.62;89.89;101059.22;5116761;28;20063;-66
2022/09/07 05:49:41;;;;;;;11.23;7.75;;;19.20;99.90;;;19.44;89.89;101033.97;5116839;28;20093;-66
2022/09/07 05:52:11;;;;;;;9.10;7.90;;;19.20;99.90;;;19.76;90.43;101083.72;5116587;28;20549;-66
2022/09/07 05:54:40;;;;;;;;;;;19.30;99.90;;;19.78;90.37;101055.88;5115848;28;20108;-66
2022/09/07 05:57:11;;;;;;;10.77;8.18;;;19.50;99.90;;;20.14;89.95;101090.25;5116604;28;19928;-66
2022/09/07 05:59:41;;;;;;;10.88;8.18;;;19.60;99.90;;;20.28;89.16;101093.31;5117130;28;20048;-66
2022/09/07 06:02:14;;;;;;;9.13;8.20;;;19.80;99.90;;;20.49;88.31;101103.19;5116759;28;20043;-66
2022/09/07 06:04:43;;;;;;;11.10;8.80;;;20.00;99.90;;;20.66;86.99;101096.16;5116342;28;20084;-66
2022/09/07 06:07:13;;;;;;;15.07;8.07;;;20.20;99.90;;;20.71;85.53;101100.47;5116364;28;20548;-66
2022/09/07 06:09:50;;;;;;;10.40;8.05;;;20.20;99.90;;;20.40;84.72;101066.78;5116615;28;20050;-66
2022/09/07 06:12:38;;;;;;;7.65;6.93;;;20.20;99.90;;;20.35;85.28;101084.94;5116313;28;20071;-66
2022/09/07 06:15:08;;;;;;;9.00;8.10;;;20.10;99.90;;;20.53;85.26;101102.13;5114912;28;20130;-66
2022/09/07 06:17:37;;;;;;;11.93;9.63;;;20.10;99.90;;;20.63;85.26;101093.59;5116096;28;20547;-66
2022/09/07 06:20:08;;;;;;;11.23;8.90;;;20.30;99.90;;;20.99;84.71;101123.44;5116279;28;20504;-66
2022/09/07 06:22:41;;;;;;;10.07;9.02;;;20.50;99.90;;;21.14;83.79;101127.28;5116508;28;20039;-66
2022/09/07 06:25:09;;;;;;;13.13;8.95;;;20.70;99.90;;;21.19;83.32;101127.97;5116289;28;20051;-66
2022/09/07 06:27:38;;;;;;;10.75;9.55;;;20.80;99.90;;;21.00;83.29;101094.72;5116126;28;20111;-66
2022/09/07 06:30:07;;;;;;;12.45;10.73;;;20.80;99.90;;;21.26;82.96;101143.78;5116049;28;20048;-66
2022/09/07 06:32:40;;;;;;;11.23;9.97;;;20.90;99.90;;;21.19;82.87;101115.41;5115018;28;20044;-66
2022/09/07 06:35:10;;;;;;;15.02;10.23;;;20.90;99.90;;;21.37;82.43;101137.91;5116125;28;20039;-66
2022/09/07 06:37:40;;;;;;;12.48;9.95;;;20.90;99.90;;;21.37;82.33;101129.84;5115827;28;20059;-66
2022/09/07 06:40:10;;;;;;;11.98;9.95;;;21.00;99.90;;;21.47;82.33;101141.94;5115983;28;20039;-66
2022/09/07 06:42:42;;;;;;;10.70;9.57;;;21.00;99.90;;;21.36;82.03;101142.44;5116211;28;20116;-66
2022/09/07 06:45:11;;;;;;;10.88;9.75;;;21.00;99.90;;;21.35;81.63;101134.44;5114723;28;20154;-66
2022/09/07 06:47:42;;;;;;;11.60;10.20;;;21.00;99.90;;;21.36;81.53;101163.97;5116220;28;20140;-66
2022/09/07 06:50:11;;;;;;;11.40;9.40;;;20.90;99.90;;;21.18;81.54;101139.66;5115938;28;20093;-66
2022/09/07 06:52:41;;;;;;;10.25;9.15;;;20.80;99.90;;;21.13;81.35;101166.78;5115649;28;20096;-66
2022/09/07 06:55:30;;;;;;;12.48;9.57;;;20.70;99.90;;;21.09;81.94;101148.16;5115680;28;20083;-66
2022/09/07 06:57:58;;;;;;;11.23;9.35;;;20.70;99.90;;;20.82;82.49;101162.72;5114461;28;20050;-66
2022/09/07 07:00:26;;;;;;;12.52;9.30;;;20.60;99.90;;;20.62;83.86;101169.81;5115607;28;20044;-66
2022/09/07 07:02:54;;;;;;;10.73;9.15;;;20.40;99.90;;;20.67;84.23;101162.41;5115468;28;20447;-66
2022/09/07 07:05:23;;;;;;;13.48;9.55;;;20.30;99.90;;;20.85;84.30;101160.78;5115321;28;20057;-66
2022/09/07 07:07:53;;;;;;;10.45;8.70;;;20.40;99.90;;;20.87;84.17;101158.03;5114289;28;20561;-66
2022/09/07 07:10:21;;;;;;;12.30;9.33;;;20.50;99.90;;;20.99;83.75;101157.50;5114261;28;20104;-66
2022/09/07 07:12:55;;;;;;;9.95;8.43;;;20.60;99.90;;;20.95;83.63;101155.88;5115336;28;20280;-66
2022/09/07 07:15:28;;;;;;;8.95;8.15;;;20.60;99.90;;;21.05;83.73;101149.22;5115385;28;20100;-66
2022/09/07 07:17:56;;;;;;;11.23;9.38;;;20.70;99.90;;;21.03;83.65;101153.78;5115144;28;20039;-66
2022/09/07 07:20:37;;;;;;;10.63;8.18;;;20.70;99.90;;;21.25;83.24;101165.38;5115662;28;20046;-66
2022/09/07 07:23:07;;;;;;;9.60;8.57;;;20.90;99.90;;;21.46;82.44;101170.72;5114218;28;20046;-66
2022/09/07 07:25:36;;;;;;;10.43;9.25;;;21.00;99.90;;;21.57;81.92;101170.22;5115484;28;20040;-66
2022/09/07 07:28:05;;;;;;;9.70;8.10;;;21.20;99.90;;;21.65;80.72;101156.41;5115010;28;20134;-66
2022/09/07 07:30:56;;;;;;;8.63;7.72;;;21.40;99.90;;;21.96;80.07;101181.91;5113869;28;20097;-66
2022/09/07 07:36:28;;;;;;;8.07;6.95;;;21.60;99.90;;;21.97;79.57;101178.25;5114848;28;20501;-66
2022/09/07 07:38:58;;;;;;;9.88;7.68;;;21.60;99.90;;;21.95;79.27;101180.13;5114995;28;20481;-66
2022/09/07 07:41:30;;;;;;;10.15;7.88;;;21.60;99.90;;;22.18;79.16;101166.47;5115286;28;20051;-66
2022/09/07 07:44:19;;;;;;;8.68;7.85;;;21.80;99.90;;;22.60;78.12;101184.25;5114593;28;20264;-66
2022/09/07 07:46:48;;;;;;;12.40;8.30;;;22.20;99.90;;;21.15;77.15;100886.91;5114530;28;20408;-66
2022/09/07 07:49:17;;;;;;;11.07;7.63;;;22.50;99.90;;;23.09;76.16;101188.97;5114425;28;20067;-66
2022/09/07 07:51:45;;;;;;;9.23;7.60;;;22.70;99.90;;;22.70;75.25;101073.16;5114703;28;20054;-65
2022/09/07 07:54:36;;;;;;;9.35;8.10;;;23.00;99.90;;;23.39;73.38;101176.63;5114451;28;20050;-65
2022/09/07 07:57:05;;;;;;;10.82;8.57;;;23.20;99.90;;;23.80;73.12;101186.13;5114368;28;20044;-66
2022/09/07 07:59:34;;;;;;;10.48;9.38;;;23.40;99.90;;;23.94;72.45;101186.22;5114272;28;20520;-66
2022/09/07 08:02:03;;;;;;;12.77;9.90;;;23.60;99.90;;;24.12;71.37;101184.38;5114563;28;20040;-66
2022/09/07 08:04:33;;;;;;;9.55;8.57;;;23.80;99.90;;;24.37;71.08;101181.19;5114502;28;20051;-65
2022/09/07 08:07:02;;;;;;;11.48;9.57;;;24.00;99.90;;;24.39;70.68;101169.31;5112394;28;20488;-66
2022/09/07 08:09:39;;;;;;;12.77;10.35;;;24.20;99.90;;;24.57;69.17;101154.75;5114295;28;20043;-65
2022/09/07 08:12:10;;;;;;;11.95;9.27;;;24.30;99.90;;;24.92;68.58;101183.38;5114180;28;20036;-65
2022/09/07 08:14:39;;;;;;;11.50;10.10;;;24.60;99.90;;;24.99;67.74;101178.44;5113216;28;20047;-65
2022/09/07 08:17:09;;;;;;;11.25;10.13;;;24.70;99.90;;;25.19;66.88;101180.84;5114034;28;20043;-69
2022/09/07 08:19:38;;;;;;;11.60;10.18;;;24.80;99.90;;;25.03;66.00;101188.13;5114017;28;20511;-65
2022/09/07 08:22:10;;;;;;;11.35;9.93;;;24.80;99.90;;;25.19;66.53;101182.69;5112721;28;20060;-66
2022/09/07 08:24:40;;;;;;;10.20;9.27;;;24.80;99.90;;;25.38;66.11;101186.91;5113918;28;20484;-65
2022/09/07 08:27:08;;;;;;;11.30;10.18;;;25.00;99.90;;;25.54;65.15;101176.03;5114446;28;20040;-66
2022/09/07 08:29:36;;;;;;;10.95;9.85;;;25.20;99.90;;;25.57;64.75;101165.88;5113660;28;20040;-66
2022/09/07 08:32:06;;;;;;;12.70;9.25;;;25.20;99.90;;;25.15;64.29;101075.50;5113810;28;20036;-65
2022/09/07 08:34:37;;;;;;;10.27;8.10;;;25.30;99.90;;;25.77;63.84;101170.06;5114161;28;20809;-65
2022/09/07 08:37:05;;;;;;;9.75;8.20;;;25.40;99.90;;;25.97;64.10;101174.25;5113723;28;20122;-66
2022/09/07 08:39:34;;;;;;;9.57;7.95;;;25.50;99.90;;;26.12;63.45;101167.88;5113742;28;20047;-65
2022/09/07 08:42:40;;;;;;;9.98;7.13;;;25.70;99.90;;;26.20;62.86;101179.09;5113843;28;20043;-66
2022/09/07 08:45:15;;;;;;;9.13;6.28;;;25.80;99.90;;;26.28;60.85;101180.38;5113603;28;20134;-65
2022/09/07 08:47:48;;;;;;;7.50;6.70;;;25.90;99.90;;;26.42;61.53;101174.06;5113552;28;20054;-66
2022/09/07 08:50:22;;;;;;;9.23;6.72;;;26.00;99.90;;;26.57;60.62;101181.19;5113534;28;20043;-65
2022/09/07 08:52:54;;;;;;;10.95;6.15;;;26.10;99.90;;;26.59;60.09;101179.25;5113544;28;20051;-65
2022/09/07 08:55:30;;;;;;;10.70;7.13;;;26.30;99.90;;;26.54;59.72;101170.50;5113250;28;20039;-65
2022/09/07 08:58:10;;;;;;;10.35;6.28;;;26.20;99.90;;;26.34;58.94;101182.69;5113132;28;20075;-65
2022/09/07 09:00:59;;;;;;;12.73;7.38;;;26.00;99.90;;;26.44;60.01;101174.81;5113239;28;20485;-65
2022/09/07 09:03:48;;;;;;;7.15;5.47;;;26.00;99.90;;;26.52;59.47;101184.19;5113221;28;20047;-65
2022/09/07 09:06:44;;;;;;;10.10;5.97;;;26.10;99.90;;;26.43;59.22;101183.91;5112348;28;20422;-65
2022/09/07 09:09:26;;;;;;;9.63;5.55;;;26.00;99.90;;;26.61;58.44;101182.72;5113261;28;20051;-66
2022/09/07 09:12:12;;;;;;;12.05;5.95;;;26.20;99.90;;;26.60;58.61;101175.53;5113243;28;20131;-65
2022/09/07 09:15:00;;;;;;;9.43;5.30;;;26.20;99.90;;;26.86;57.89;101180.16;5113037;28;20047;-65
2022/09/07 09:17:33;;;;;;;9.18;5.78;;;26.40;99.90;;;26.77;57.89;101164.50;5112566;28;20053;-65
2022/09/07 09:20:17;;;;;;;8.88;5.15;;;26.50;99.90;;;26.89;57.48;101177.22;5113071;28;20548;-65
2022/09/07 09:22:46;;;;;;;7.57;4.60;;;26.50;99.90;;;27.02;57.26;101178.16;5113218;28;20122;-65
2022/09/07 09:25:19;;;;;;;10.20;4.85;;;26.60;99.90;;;27.11;56.71;101182.97;5113062;28;20035;-65
2022/09/07 09:27:49;;;;;;;8.10;5.32;;;26.70;99.90;;;27.14;55.69;101190.91;5113158;28;20048;-65
2022/09/07 09:30:22;;;;;;;10.85;5.20;;;26.70;99.90;;;27.20;55.27;101187.75;5112996;28;20481;-65
2022/09/07 09:32:52;;;;;;;13.38;5.18;;;26.70;99.90;;;27.13;55.85;101181.00;5112929;28;20092;-65
2022/09/07 09:35:29;;;;;;;8.18;4.40;;;26.70;99.90;;;26.99;54.43;101166.63;5112924;28;20040;-65
2022/09/07 09:37:57;;;;;;;9.15;4.70;;;26.70;99.90;;;27.12;55.71;101175.69;5112889;28;20044;-65
2022/09/07 09:40:29;;;;;;;10.88;5.20;;;26.70;99.90;;;26.75;55.46;101090.41;5113008;28;20039;-65
2022/09/07 09:43:00;;;;;;;7.18;4.15;;;26.80;99.90;;;27.31;53.48;101170.75;5112908;28;20039;-65
2022/09/07 09:45:35;;;;;;;7.05;4.28;;;26.90;99.90;;;27.35;53.73;101170.44;5112810;28;20052;-65
2022/09/07 09:48:32;;;;;;;11.95;5.00;;;26.90;99.90;;;27.51;53.18;101176.56;5112846;28;20054;-65
2022/09/07 09:51:03;;;;;;;9.60;4.03;;;27.10;99.90;;;26.68;53.06;101029.31;5112987;28;20469;-65
2022/09/07 09:53:59;;;;;;;8.18;4.25;;;27.10;99.90;;;27.67;51.99;101179.06;5111420;28;20044;-65
2022/09/07 09:56:42;;;;;;;11.48;4.30;;;27.20;99.90;;;27.76;51.89;101161.25;5111322;28;20453;-65
2022/09/07 09:59:26;;;;;;;10.23;4.35;;;27.30;99.90;;;27.80;52.96;101141.88;5112763;28;20043;-65
2022/09/07 10:02:29;;;;;;;9.05;4.30;;;27.50;99.90;;;27.97;52.53;101165.19;5112476;28;20073;-65
2022/09/07 10:05:34;;;;;;;11.52;4.53;;;27.50;99.90;;;27.91;53.14;101157.44;5112323;28;20032;-67
2022/09/07 10:08:06;;;;;;;9.88;4.53;;;27.60;99.90;;;27.92;52.27;101170.91;5112677;28;20047;-65
2022/09/07 10:10:35;;;;;;;9.57;4.60;;;27.50;99.90;;;28.06;53.50;101168.13;5112841;28;20051;-65
2022/09/07 10:13:07;;;;;;;10.35;3.97;;;27.60;99.90;;;28.08;51.06;101178.88;5112821;28;20039;-65
2022/09/07 10:15:35;;;;;;;8.65;3.70;;;27.60;99.90;;;27.94;50.50;101170.78;5112629;28;20044;-65
2022/09/07 10:18:20;;;;;;;8.40;3.92;;;27.50;99.90;;;27.88;51.41;101147.63;5113019;28;20052;-65
2022/09/07 10:20:48;;;;;;;8.38;3.85;;;27.50;99.90;;;27.84;51.68;101161.56;5112405;28;20512;-65
2022/09/07 10:23:24;;;;;;;11.18;4.55;;;27.50;99.90;;;27.61;52.01;101149.59;5112380;28;20392;-65
2022/09/07 10:25:52;;;;;;;11.43;4.25;;;27.30;99.90;;;27.70;52.56;101169.84;5112738;28;20483;-65
2022/09/07 10:28:23;;;;;;;8.80;4.50;;;27.30;99.90;;;27.74;52.62;101171.38;5112586;28;20047;-65
2022/09/07 10:31:06;;;;;;;10.15;3.90;;;27.30;99.90;;;27.86;52.21;101171.34;5114904;28;20051;-65
2022/09/07 10:33:50;;;;;;;8.73;4.45;;;27.40;99.90;;;27.85;52.32;101141.56;5116313;28;20048;-65
2022/09/07 10:36:48;;;;;;;9.63;4.70;;;27.50;99.90;;;28.05;52.25;101162.78;5116067;28;20051;-65
2022/09/07 10:39:23;;;;;;;12.38;4.60;;;27.60;99.90;;;28.12;52.84;101173.13;5115976;28;20101;-66